Home   Weather   Greece   Kos   Past weeks
Flag for Greece

Past Weather in Kos, Greece — Yesterday and Last 2 Weeks

Currently: 75 °F. Clear. (Weather station: Kos Airport, Greece). See more current weather

Past Weather in Kos — Graph

°F

Kos Temperature Yesterday

Maximum temperature yesterday: 100 °F (at 1:50 pm)
Minimum temperature yesterday: 77 °F (at 9:50 pm)
Average temperature yesterday: 86 °F

High & Low Weather Summary for the Past Weeks

 TemperatureHumidityPressure
High100 °F (Jul 19, 1:50 pm)89% (Jul 9, 4:50 am)29.80 "Hg (Jul 9, 4:50 am)
Low75 °F (Jul 6, 3:50 am)26% (Jul 15, 4:50 pm)29.59 "Hg (Jul 20, 3:50 am)
Average84 °F57%29.69 "Hg
* Reported Jul 6 12:20 am — Jul 21 12:20 am, Kos. Weather by CustomWeather, © 2024

Note: Actual official high and low records may vary slightly from our data, if they occured in-between our weather recording intervals... More about our weather records

Kos Weather History for the Previous 24 Hours

Scroll right to see more
 ConditionsComfort  
Time TempWeatherWind HumidityBarometerVisibility
12:20 am
Sun, Jul 21
77 °FClear.12 mph83%29.68 "Hg10 mi
11:50 pm
Sat, Jul 20
77 °FClear.13 mph83%29.68 "Hg10 mi
10:20 pm77 °FClear.12 mph83%29.68 "Hg10 mi
9:50 pm77 °FClear.12 mph83%29.68 "Hg10 mi
8:50 pm79 °FClear.13 mph74%29.65 "Hg10 mi
8:20 pm81 °FSunny.14 mph70%29.65 "Hg10 mi
7:50 pm81 °FSunny.14 mph70%29.65 "Hg10 mi
7:20 pm82 °FSunny.15 mph66%29.65 "Hg10 mi
6:50 pm84 °FSunny.17 mph62%29.62 "Hg10 mi
6:20 pm84 °FSunny.13 mph62%29.62 "Hg10 mi
5:50 pm84 °FSunny.17 mph58%29.62 "Hg10 mi
4:50 pm88 °FSunny.15 mph52%29.62 "Hg10 mi
4:20 pm90 °FSunny.14 mph52%29.65 "Hg10 mi
3:50 pm90 °FSunny.13 mph52%29.65 "Hg10 mi
3:20 pm90 °FSunny.14 mph49%29.65 "Hg10 mi
2:50 pm91 °FSunny.14 mph46%29.65 "Hg10 mi
2:20 pm95 °FSunny.12 mph36%29.65 "Hg10 mi
1:50 pm100 °FSunny.10 mph33%29.65 "Hg10 mi
1:20 pm97 °FSunny.12 mph32%29.65 "Hg10 mi
12:50 pm99 °FSunny.9 mph31%29.65 "Hg10 mi
12:20 pm97 °FSunny.9 mph30%29.65 "Hg10 mi
11:20 am95 °FSunny.6 mph36%29.65 "Hg10 mi
10:20 am91 °FSunny.12 mph38%29.65 "Hg10 mi
9:50 am91 °FSunny.12 mph41%29.65 "Hg10 mi
9:20 am90 °FSunny.10 mph41%29.65 "Hg10 mi
8:50 am88 °FSunny.12 mph43%29.65 "Hg10 mi
8:20 am88 °FSunny.12 mph43%29.62 "Hg10 mi
7:50 am84 °FSunny.9 mph51%29.62 "Hg10 mi
7:20 am84 °FSunny.9 mph58%29.59 "Hg10 mi
6:50 am82 °FSunny.7 mph62%29.59 "Hg10 mi
6:20 am82 °FSunny.8 mph58%29.59 "Hg10 mi
5:50 am82 °FClear.10 mph58%29.59 "Hg10 mi
5:20 am84 °FClear.9 mph55%29.59 "Hg10 mi
4:50 am84 °FClear.9 mph55%29.59 "Hg10 mi
4:20 am84 °FClear.10 mph55%29.59 "Hg10 mi
3:50 am84 °FClear.8 mph55%29.59 "Hg10 mi
3:20 am84 °FPassing clouds.9 mph55%29.62 "HgN/A
2:50 am84 °FPassing clouds.9 mph55%29.62 "HgN/A
2:20 am86 °FPassing clouds.7 mph55%29.62 "HgN/A
1:50 am86 °FPassing clouds.10 mph55%29.62 "HgN/A
1:20 am82 °FPassing clouds.13 mph70%29.62 "HgN/A
Weather by CustomWeather, © 2024

See weather overview